This is the latest recevied weather packets stored in our database for station/object OM6ACB-6. If no packets are shown the sender has not sent any weather packets the latest 10 day(s).
| Time | Temp. | Humidity | Pressure | Rain* | Wind** | Luminosity | Snow |
|---|---|---|---|---|---|---|---|
| 1777446001 | 9.44° C | 28% | 1024.6 hPa | 0 mm | - | - | - |
| 1777445401 | 9.44° C | 28% | 1024.7 hPa | 0 mm | - | - | - |
| 1777444801 | 8.89° C | 28% | 1024.6 hPa | 0 mm | - | - | - |
| 1777444201 | 9.44° C | 28% | 1024.5 hPa | 0 mm | - | - | - |
| 1777443600 | 8.33° C | 28% | 1024.3 hPa | 0 mm | - | - | - |
| 1777443000 | 8.33° C | 28% | 1024.3 hPa | 0 mm | - | - | - |
| 1777442400 | 8.89° C | 28% | 1024.3 hPa | 0 mm | - | - | - |
| 1777441800 | 7.78° C | 29% | 1024.2 hPa | 0 mm | - | - | - |
| 1777441199 | 7.78° C | 29% | 1024.1 hPa | 0 mm | - | - | - |
| 1777440599 | 6.11° C | 29% | 1023.8 hPa | 0 mm | - | - | - |
| 1777439999 | 6.67° C | 29% | 1023.8 hPa | 0 mm | - | - | - |
| 1777439398 | 6.11° C | 29% | 1023.6 hPa | 0 mm | - | - | - |
| 1777438798 | 5.56° C | 30% | 1023.5 hPa | 0 mm | - | - | - |
| 1777438198 | 5° C | 30% | 1023.4 hPa | 0 mm | - | - | - |
| 1777437597 | 4.44° C | 30% | 1023.3 hPa | 0 mm | - | - | - |
| 1777436997 | 4.44° C | 30% | 1023.2 hPa | 0 mm | - | - | - |
| 1777436397 | 3.89° C | 31% | 1023.2 hPa | 0 mm | - | - | - |
| 1777435797 | 3.89° C | 31% | 1023.1 hPa | 0 mm | - | - | - |
| 1777435196 | 3.33° C | 31% | 1023 hPa | 0 mm | - | - | - |
| 1777434596 | 3.33° C | 31% | 1022.8 hPa | 0 mm | - | - | - |
| 1777433996 | 2.78° C | 31% | 1022.7 hPa | 0 mm | - | - | - |
| 1777433395 | 2.78° C | 31% | 1022.6 hPa | 0 mm | - | - | - |
| 1777432795 | 2.78° C | 31% | 1022.6 hPa | 0 mm | - | - | - |
| 1777432195 | 2.78° C | 31% | 1022.6 hPa | 0 mm | - | - | - |
| 1777431595 | 2.78° C | 31% | 1022.6 hPa | 0 mm | - | - | - |
* Rain latest hour (hover to see other rain measurements)
** Current wind speed in m/s (hover to see current wind gust speed)